Aggieland, Texas
Current Conditions -  °F | °C
As of 9:53 AM on Thursday 30 Oct 2014 (Local Time) from KCLL Reporting Station
Clear Clear  
Wind Chill: 64°   Ceiling: Unl
Heat Index: 64°   Visibility: 10mi
Dew Point: 48°   Wind: 9mph
Humidity: 56%   Direction: 110°ESE
Pressure: 30.17"   Gusts: NA
Location:  30.5943°N, 96.3574°W
Report Text: KCLL 301453Z 11008KT 10SM CLR 18/09 A3017 RMK AO2 SLP213 T01780089 53015
Loading
Personal Weather Stations






























Interactive Weather Map
Tropical Storm Tracking
New forecast layout! Learn more

10-Day Weather Forecast

Advertisements
Track Severe Weather on mobile